CheckWX is a tool to help pilots better visualize weather data.  It is not intended as a substitute for an official pre-flight weather briefing.

04:37:03 UTC

KCTY METAR
Cross City Airport
Cross City, Florida, USA
Current

22 mins ago

KCTY 100415Z AUTO 17003KT 3 1/2SM BR CLR 16/16 A3011 RMK AO2 T01600157
Observed
Dec-10 @ 04:15 UTC
Wind
  • 170° at 3 KTS
Visibility
3 1/2 SM
Flight Rules
MVFR
Conditions
Mist
Cloud Levels
  • Clear skies
Temperature
16°C / 61°F
Dewpoint
16°C / 61°F
Humidity
100%
Altimeter
30.11" Hg
Pressure
1019.62 hPa
Previous

42 mins ago

KCTY 100355Z AUTO 00000KT 10SM CLR 16/15 A3011 RMK AO2 T01570154
Observed
Dec-10 @ 03:55 UTC
Visibility
10 SM
Flight Rules
VFR
Cloud Levels
  • Clear skies
Temperature
16°C / 61°F
Dewpoint
15°C / 59°F
Humidity
94%
Altimeter
30.11" Hg
Pressure
1019.62 hPa
Previous

1 hour ago

KCTY 100335Z AUTO 18003KT 10SM CLR 17/16 A3011 RMK AO2 T01670164
Observed
Dec-10 @ 03:35 UTC
Wind
  • 180° at 3 KTS
Visibility
10 SM
Flight Rules
VFR
Cloud Levels
  • Clear skies
Temperature
17°C / 63°F
Dewpoint
16°C / 61°F
Humidity
94%
Altimeter
30.11" Hg
Pressure
1019.62 hPa